sensor_id;sensor_type;location;lat;lon;timestamp;pressure;altitude;pressure_sealevel;temperature;humidity
60852;BME280;48553;50.766;2.900;2024-03-07T00:00:52;101674.03;;;6.61;100.00
60852;BME280;48553;50.766;2.900;2024-03-07T00:03:55;101671.31;;;6.61;100.00
60852;BME280;48553;50.766;2.900;2024-03-07T00:06:55;101675.13;;;6.60;100.00
60852;BME280;48553;50.766;2.900;2024-03-07T00:09:55;101680.03;;;6.58;100.00
60852;BME280;48553;50.766;2.900;2024-03-07T00:12:56;101690.41;;;6.56;100.00
60852;BME280;48553;50.766;2.900;2024-03-07T00:15:56;101686.88;;;6.56;100.00
60852;BME280;48553;50.766;2.900;2024-03-07T00:18:57;101679.00;;;6.54;100.00
60852;BME280;48553;50.766;2.900;2024-03-07T00:21:57;101672.50;;;6.50;100.00
60852;BME280;48553;50.766;2.900;2024-03-07T00:24:58;101680.66;;;6.50;100.00
60852;BME280;48553;50.766;2.900;2024-03-07T00:27:59;101667.31;;;6.48;100.00
60852;BME280;48553;50.766;2.900;2024-03-07T00:31:03;101673.03;;;6.47;100.00
60852;BME280;48553;50.766;2.900;2024-03-07T00:34:03;101681.00;;;6.43;100.00
60852;BME280;48553;50.766;2.900;2024-03-07T00:37:04;101673.63;;;6.44;100.00
60852;BME280;48553;50.766;2.900;2024-03-07T00:40:05;101664.94;;;6.42;100.00
60852;BME280;48553;50.766;2.900;2024-03-07T00:43:06;101667.91;;;6.40;100.00
60852;BME280;48553;50.766;2.900;2024-03-07T00:46:06;101662.78;;;6.39;100.00
60852;BME280;48553;50.766;2.900;2024-03-07T00:49:07;101658.41;;;6.38;100.00
60852;BME280;48553;50.766;2.900;2024-03-07T00:52:07;101655.16;;;6.36;100.00
60852;BME280;48553;50.766;2.900;2024-03-07T00:55:08;101656.56;;;6.33;100.00
60852;BME280;48553;50.766;2.900;2024-03-07T00:58:09;101646.50;;;6.34;100.00
60852;BME280;48553;50.766;2.900;2024-03-07T01:01:09;101646.25;;;6.30;100.00
60852;BME280;48553;50.766;2.900;2024-03-07T01:04:11;101656.31;;;6.30;100.00
60852;BME280;48553;50.766;2.900;2024-03-07T01:07:12;101657.72;;;6.27;100.00
60852;BME280;48553;50.766;2.900;2024-03-07T01:10:15;101653.06;;;6.27;100.00
60852;BME280;48553;50.766;2.900;2024-03-07T01:13:16;101650.63;;;6.26;100.00
60852;BME280;48553;50.766;2.900;2024-03-07T01:16:23;101644.97;;;6.22;100.00
60852;BME280;48553;50.766;2.900;2024-03-07T01:19:23;101640.88;;;6.20;100.00
60852;BME280;48553;50.766;2.900;2024-03-07T01:22:24;101636.53;;;6.19;100.00
60852;BME280;48553;50.766;2.900;2024-03-07T01:25:24;101638.44;;;6.18;100.00
60852;BME280;48553;50.766;2.900;2024-03-07T01:28:26;101637.63;;;6.18;100.00
60852;BME280;48553;50.766;2.900;2024-03-07T01:31:30;101637.38;;;6.14;100.00
60852;BME280;48553;50.766;2.900;2024-03-07T01:34:30;101626.25;;;6.11;100.00
60852;BME280;48553;50.766;2.900;2024-03-07T01:37:30;101629.25;;;6.09;100.00
60852;BME280;48553;50.766;2.900;2024-03-07T01:40:31;101624.09;;;6.07;100.00
60852;BME280;48553;50.766;2.900;2024-03-07T01:43:31;101632.25;;;6.07;100.00
60852;BME280;48553;50.766;2.900;2024-03-07T01:46:32;101628.19;;;6.05;100.00
60852;BME280;48553;50.766;2.900;2024-03-07T01:49:32;101618.94;;;6.06;100.00
60852;BME280;48553;50.766;2.900;2024-03-07T01:52:33;101623.84;;;6.04;100.00
60852;BME280;48553;50.766;2.900;2024-03-07T01:55:34;101618.16;;;6.00;100.00
60852;BME280;48553;50.766;2.900;2024-03-07T01:58:35;101609.19;;;6.00;100.00
60852;BME280;48553;50.766;2.900;2024-03-07T02:01:37;101609.19;;;6.00;100.00
60852;BME280;48553;50.766;2.900;2024-03-07T02:04:37;101604.03;;;5.98;100.00
60852;BME280;48553;50.766;2.900;2024-03-07T02:07:38;101611.66;;;5.96;100.00
60852;BME280;48553;50.766;2.900;2024-03-07T02:10:39;101608.94;;;5.96;100.00
60852;BME280;48553;50.766;2.900;2024-03-07T02:13:39;101601.88;;;5.95;100.00
60852;BME280;48553;50.766;2.900;2024-03-07T02:16:40;101598.59;;;5.93;100.00
60852;BME280;48553;50.766;2.900;2024-03-07T02:19:40;101598.59;;;5.93;100.00
60852;BME280;48553;50.766;2.900;2024-03-07T02:22:41;101598.06;;;5.91;100.00
60852;BME280;48553;50.766;2.900;2024-03-07T02:25:42;101597.25;;;5.91;100.00
60852;BME280;48553;50.766;2.900;2024-03-07T02:28:42;101599.44;;;5.89;100.00
60852;BME280;48553;50.766;2.900;2024-03-07T02:31:43;101586.94;;;5.88;100.00
60852;BME280;48553;50.766;2.900;2024-03-07T02:34:43;101585.59;;;5.85;100.00
60852;BME280;48553;50.766;2.900;2024-03-07T02:37:43;101576.09;;;5.82;100.00
60852;BME280;48553;50.766;2.900;2024-03-07T02:40:46;101576.91;;;5.83;100.00
60852;BME280;48553;50.766;2.900;2024-03-07T02:43:49;101581.00;;;5.80;100.00
60852;BME280;48553;50.766;2.900;2024-03-07T02:46:49;101576.94;;;5.78;100.00
60852;BME280;48553;50.766;2.900;2024-03-07T02:49:50;101569.91;;;5.77;100.00
60852;BME280;48553;50.766;2.900;2024-03-07T02:52:50;101576.16;;;5.72;100.00
60852;BME280;48553;50.766;2.900;2024-03-07T02:55:52;101570.16;;;5.75;100.00
60852;BME280;48553;50.766;2.900;2024-03-07T02:58:53;101577.78;;;5.73;100.00
60852;BME280;48553;50.766;2.900;2024-03-07T03:01:53;101578.06;;;5.72;100.00
60852;BME280;48553;50.766;2.900;2024-03-07T03:04:53;101572.63;;;5.72;100.00
60852;BME280;48553;50.766;2.900;2024-03-07T03:07:54;101578.38;;;5.70;100.00
60852;BME280;48553;50.766;2.900;2024-03-07T03:10:55;101572.41;;;5.68;100.00
60852;BME280;48553;50.766;2.900;2024-03-07T03:13:56;101562.06;;;5.65;100.00
60852;BME280;48553;50.766;2.900;2024-03-07T03:16:57;101558.31;;;5.61;100.00
60852;BME280;48553;50.766;2.900;2024-03-07T03:19:57;101563.75;;;5.61;100.00
60852;BME280;48553;50.766;2.900;2024-03-07T03:22:58;101561.03;;;5.61;100.00
60852;BME280;48553;50.766;2.900;2024-03-07T03:25:58;101548.50;;;5.60;100.00
60852;BME280;48553;50.766;2.900;2024-03-07T03:28:59;101553.13;;;5.59;100.00
60852;BME280;48553;50.766;2.900;2024-03-07T03:32:00;101550.16;;;5.56;100.00
60852;BME280;48553;50.766;2.900;2024-03-07T03:35:01;101558.88;;;5.53;100.00
60852;BME280;48553;50.766;2.900;2024-03-07T03:38:02;101555.06;;;5.54;100.00
60852;BME280;48553;50.766;2.900;2024-03-07T03:41:02;101540.94;;;5.52;100.00
60852;BME280;48553;50.766;2.900;2024-03-07T03:44:05;101531.44;;;5.49;100.00
60852;BME280;48553;50.766;2.900;2024-03-07T03:47:06;101538.53;;;5.50;100.00
60852;BME280;48553;50.766;2.900;2024-03-07T03:50:08;101535.53;;;5.47;100.00
60852;BME280;48553;50.766;2.900;2024-03-07T03:53:09;101530.91;;;5.47;100.00
60852;BME280;48553;50.766;2.900;2024-03-07T03:56:10;101535.53;;;5.47;100.00
60852;BME280;48553;50.766;2.900;2024-03-07T03:59:12;101527.38;;;5.47;100.00
60852;BME280;48553;50.766;2.900;2024-03-07T04:02:12;101524.97;;;5.45;100.00
60852;BME280;48553;50.766;2.900;2024-03-07T04:05:13;101529.56;;;5.44;100.00
60852;BME280;48553;50.766;2.900;2024-03-07T04:08:14;101525.50;;;5.42;100.00
60852;BME280;48553;50.766;2.900;2024-03-07T04:11:14;101526.63;;;5.41;100.00
60852;BME280;48553;50.766;2.900;2024-03-07T04:14:14;101524.97;;;5.40;100.00
60852;BME280;48553;50.766;2.900;2024-03-07T04:17:15;101521.19;;;5.41;100.00
60852;BME280;48553;50.766;2.900;2024-03-07T04:20:15;101516.03;;;5.39;100.00
60852;BME280;48553;50.766;2.900;2024-03-07T04:23:17;101518.19;;;5.37;100.00
60852;BME280;48553;50.766;2.900;2024-03-07T04:26:18;101518.19;;;5.37;100.00
60852;BME280;48553;50.766;2.900;2024-03-07T04:29:19;101510.31;;;5.36;100.00
60852;BME280;48553;50.766;2.900;2024-03-07T04:32:20;101506.00;;;5.35;100.00
60852;BME280;48553;50.766;2.900;2024-03-07T04:35:21;101509.81;;;5.34;100.00
60852;BME280;48553;50.766;2.900;2024-03-07T04:38:21;101501.13;;;5.32;100.00
60852;BME280;48553;50.766;2.900;2024-03-07T04:41:22;101500.59;;;5.30;100.00
60852;BME280;48553;50.766;2.900;2024-03-07T04:44:22;101515.25;;;5.29;100.00
60852;BME280;48553;50.766;2.900;2024-03-07T04:47:23;101499.78;;;5.29;100.00
60852;BME280;48553;50.766;2.900;2024-03-07T04:50:23;101503.59;;;5.28;100.00
60852;BME280;48553;50.766;2.900;2024-03-07T04:53:24;101506.56;;;5.27;100.00
60852;BME280;48553;50.766;2.900;2024-03-07T04:56:24;101505.22;;;5.24;100.00
60852;BME280;48553;50.766;2.900;2024-03-07T04:59:25;101494.38;;;5.24;100.00
60852;BME280;48553;50.766;2.900;2024-03-07T05:02:25;101496.53;;;5.22;100.00
60852;BME280;48553;50.766;2.900;2024-03-07T05:05:26;101493.56;;;5.23;100.00
60852;BME280;48553;50.766;2.900;2024-03-07T05:08:27;101496.53;;;5.22;100.00
60852;BME280;48553;50.766;2.900;2024-03-07T05:11:28;101488.69;;;5.20;100.00
60852;BME280;48553;50.766;2.900;2024-03-07T05:14:29;101497.66;;;5.21;100.00
60852;BME280;48553;50.766;2.900;2024-03-07T05:17:29;101492.25;;;5.16;100.00
60852;BME280;48553;50.766;2.900;2024-03-07T05:20:33;101485.44;;;5.18;100.00
60852;BME280;48553;50.766;2.900;2024-03-07T05:23:34;101484.09;;;5.16;100.00
60852;BME280;48553;50.766;2.900;2024-03-07T05:26:35;101482.78;;;5.13;100.00
60852;BME280;48553;50.766;2.900;2024-03-07T05:29:40;101493.63;;;5.13;100.00
60852;BME280;48553;50.766;2.900;2024-03-07T05:32:42;101486.56;;;5.12;100.00
60852;BME280;48553;50.766;2.900;2024-03-07T05:35:43;101488.75;;;5.10;100.00
60852;BME280;48553;50.766;2.900;2024-03-07T05:38:44;101489.84;;;5.09;100.00
60852;BME280;48553;50.766;2.900;2024-03-07T05:41:45;101487.41;;;5.08;100.00
60852;BME280;48553;50.766;2.900;2024-03-07T05:44:45;101488.50;;;5.07;100.00
60852;BME280;48553;50.766;2.900;2024-03-07T05:47:46;101492.56;;;5.09;100.00
60852;BME280;48553;50.766;2.900;2024-03-07T05:50:47;101491.22;;;5.07;100.00
60852;BME280;48553;50.766;2.900;2024-03-07T05:53:48;101489.31;;;5.07;100.00
60852;BME280;48553;50.766;2.900;2024-03-07T05:56:48;101493.09;;;5.06;100.00
60852;BME280;48553;50.766;2.900;2024-03-07T05:59:50;101495.28;;;5.04;100.00
60852;BME280;48553;50.766;2.900;2024-03-07T06:02:51;101486.88;;;5.06;100.00
60852;BME280;48553;50.766;2.900;2024-03-07T06:05:51;101486.63;;;5.02;100.00
60852;BME280;48553;50.766;2.900;2024-03-07T06:08:53;101489.63;;;5.00;100.00
60852;BME280;48553;50.766;2.900;2024-03-07T06:11:54;101482.53;;;4.99;100.00
60852;BME280;48553;50.766;2.900;2024-03-07T06:14:54;101484.19;;;5.00;100.00
60852;BME280;48553;50.766;2.900;2024-03-07T06:17:54;101480.94;;;4.98;100.00
60852;BME280;48553;50.766;2.900;2024-03-07T06:20:55;101476.31;;;4.99;100.00
60852;BME280;48553;50.766;2.900;2024-03-07T06:23:55;101480.41;;;4.96;100.00
60852;BME280;48553;50.766;2.900;2024-03-07T06:26:59;101476.06;;;4.95;100.00
60852;BME280;48553;50.766;2.900;2024-03-07T06:30:00;101485.84;;;4.96;100.00
60852;BME280;48553;50.766;2.900;2024-03-07T06:33:00;101486.09;;;4.95;100.00
60852;BME280;48553;50.766;2.900;2024-03-07T06:36:01;101482.31;;;4.96;100.00
60852;BME280;48553;50.766;2.900;2024-03-07T06:39:01;101480.66;;;4.95;100.00
60852;BME280;48553;50.766;2.900;2024-03-07T06:42:05;101484.22;;;4.95;100.00
60852;BME280;48553;50.766;2.900;2024-03-07T06:45:06;101478.78;;;4.95;100.00
60852;BME280;48553;50.766;2.900;2024-03-07T06:48:06;101488.56;;;4.96;100.00
60852;BME280;48553;50.766;2.900;2024-03-07T06:51:08;101473.88;;;4.97;100.00
60852;BME280;48553;50.766;2.900;2024-03-07T06:54:08;101482.53;;;4.99;100.00
60852;BME280;48553;50.766;2.900;2024-03-07T06:57:09;101487.19;;;4.99;100.00
60852;BME280;48553;50.766;2.900;2024-03-07T07:00:11;101489.88;;;4.99;100.00
60852;BME280;48553;50.766;2.900;2024-03-07T07:03:12;101485.00;;;5.01;100.00
60852;BME280;48553;50.766;2.900;2024-03-07T07:06:14;101488.25;;;5.03;100.00
60852;BME280;48553;50.766;2.900;2024-03-07T07:09:15;101490.91;;;5.08;100.00
60852;BME280;48553;50.766;2.900;2024-03-07T07:12:19;101494.19;;;5.10;100.00
60852;BME280;48553;50.766;2.900;2024-03-07T07:15:19;101498.22;;;5.13;100.00
60852;BME280;48553;50.766;2.900;2024-03-07T07:18:20;101501.22;;;5.16;100.00
60852;BME280;48553;50.766;2.900;2024-03-07T07:21:24;101493.28;;;5.20;100.00
60852;BME280;48553;50.766;2.900;2024-03-07T07:24:24;101491.66;;;5.24;100.00
60852;BME280;48553;50.766;2.900;2024-03-07T07:27:25;101501.66;;;5.29;100.00
60852;BME280;48553;50.766;2.900;2024-03-07T07:30:26;101492.13;;;5.31;100.00
60852;BME280;48553;50.766;2.900;2024-03-07T07:33:29;101491.59;;;5.34;100.00
60852;BME280;48553;50.766;2.900;2024-03-07T07:36:31;101491.03;;;5.37;100.00
60852;BME280;48553;50.766;2.900;2024-03-07T07:39:32;101495.63;;;5.42;100.00
60852;BME280;48553;50.766;2.900;2024-03-07T07:42:32;101496.69;;;5.46;100.00
60852;BME280;48553;50.766;2.900;2024-03-07T07:45:33;101500.16;;;5.52;100.00
60852;BME280;48553;50.766;2.900;2024-03-07T07:48:36;101498.22;;;5.57;100.00
60852;BME280;48553;50.766;2.900;2024-03-07T07:51:36;101490.81;;;5.63;100.00
60852;BME280;48553;50.766;2.900;2024-03-07T07:54:36;101492.69;;;5.68;100.00
60852;BME280;48553;50.766;2.900;2024-03-07T07:57:37;101490.75;;;5.73;100.00
60852;BME280;48553;50.766;2.900;2024-03-07T08:00:38;101486.34;;;5.82;100.00
60852;BME280;48553;50.766;2.900;2024-03-07T08:03:40;101486.25;;;5.93;100.00
60852;BME280;48553;50.766;2.900;2024-03-07T08:06:41;101491.66;;;5.98;100.00
60852;BME280;48553;50.766;2.900;2024-03-07T08:09:41;101492.66;;;6.07;100.00
60852;BME280;48553;50.766;2.900;2024-03-07T08:12:42;101485.25;;;6.13;100.00
60852;BME280;48553;50.766;2.900;2024-03-07T08:15:43;101482.72;;;6.21;100.00
60852;BME280;48553;50.766;2.900;2024-03-07T08:18:44;101483.72;;;6.31;100.00
60852;BME280;48553;50.766;2.900;2024-03-07T08:21:44;101481.75;;;6.36;100.00
60852;BME280;48553;50.766;2.900;2024-03-07T08:24:45;101486.91;;;6.38;100.00
60852;BME280;48553;50.766;2.900;2024-03-07T08:27:47;101482.78;;;6.40;100.00
60852;BME280;48553;50.766;2.900;2024-03-07T08:30:48;101471.34;;;6.43;100.00
60852;BME280;48553;50.766;2.900;2024-03-07T08:33:48;101469.00;;;6.56;100.00
60852;BME280;48553;50.766;2.900;2024-03-07T08:36:49;101463.13;;;6.67;100.00
60852;BME280;48553;50.766;2.900;2024-03-07T08:39:49;101470.75;;;6.71;100.00
60852;BME280;48553;50.766;2.900;2024-03-07T08:42:53;101467.78;;;6.67;100.00
60852;BME280;48553;50.766;2.900;2024-03-07T08:45:56;101453.19;;;6.77;100.00
60852;BME280;48553;50.766;2.900;2024-03-07T08:48:57;101454.41;;;6.89;100.00
60852;BME280;48553;50.766;2.900;2024-03-07T08:51:57;101448.31;;;6.98;100.00
60852;BME280;48553;50.766;2.900;2024-03-07T08:54:58;101450.59;;;7.09;100.00
60852;BME280;48553;50.766;2.900;2024-03-07T08:57:59;101451.25;;;7.20;100.00
60852;BME280;48553;50.766;2.900;2024-03-07T09:00:59;101444.91;;;7.25;100.00
60852;BME280;48553;50.766;2.900;2024-03-07T09:04:00;101428.75;;;7.28;100.00
60852;BME280;48553;50.766;2.900;2024-03-07T09:07:00;101433.03;;;7.35;100.00
60852;BME280;48553;50.766;2.900;2024-03-07T09:10:01;101423.16;;;7.39;100.00
60852;BME280;48553;50.766;2.900;2024-03-07T09:13:01;101425.38;;;7.37;100.00
60852;BME280;48553;50.766;2.900;2024-03-07T09:16:03;101426.69;;;7.39;100.00
60852;BME280;48553;50.766;2.900;2024-03-07T09:19:06;101424.34;;;7.32;100.00
60852;BME280;48553;50.766;2.900;2024-03-07T09:22:06;101421.63;;;7.32;100.00
60852;BME280;48553;50.766;2.900;2024-03-07T09:25:08;101417.81;;;7.34;100.00
60852;BME280;48553;50.766;2.900;2024-03-07T09:28:09;101423.44;;;7.37;100.00
60852;BME280;48553;50.766;2.900;2024-03-07T09:31:10;101420.34;;;7.44;100.00
60852;BME280;48553;50.766;2.900;2024-03-07T09:34:14;101420.69;;;7.56;100.00
60852;BME280;48553;50.766;2.900;2024-03-07T09:37:15;101421.94;;;7.64;100.00
60852;BME280;48553;50.766;2.900;2024-03-07T09:40:15;101423.38;;;7.89;100.00
60852;BME280;48553;50.766;2.900;2024-03-07T09:43:17;101416.94;;;8.12;100.00
60852;BME280;48553;50.766;2.900;2024-03-07T09:46:21;101420.53;;;8.41;100.00
60852;BME280;48553;50.766;2.900;2024-03-07T09:49:24;101425.66;;;8.56;100.00
60852;BME280;48553;50.766;2.900;2024-03-07T09:52:26;101412.97;;;8.74;100.00
60852;BME280;48553;50.766;2.900;2024-03-07T09:55:27;101413.16;;;8.91;100.00
60852;BME280;48553;50.766;2.900;2024-03-07T09:58:28;101410.56;;;9.09;99.87
60852;BME280;48553;50.766;2.900;2024-03-07T10:01:33;101402.81;;;9.25;99.61
60852;BME280;48553;50.766;2.900;2024-03-07T10:04:43;101405.97;;;9.40;99.64
60852;BME280;48553;50.766;2.900;2024-03-07T10:07:45;101405.91;;;9.54;99.26
60852;BME280;48553;50.766;2.900;2024-03-07T10:10:46;101394.06;;;9.68;98.57
60852;BME280;48553;50.766;2.900;2024-03-07T10:13:47;101401.88;;;9.83;99.17
60852;BME280;48553;50.766;2.900;2024-03-07T10:16:49;101399.38;;;9.95;99.18
60852;BME280;48553;50.766;2.900;2024-03-07T10:19:50;101391.84;;;10.10;99.70
60852;BME280;48553;50.766;2.900;2024-03-07T10:22:51;101392.53;;;10.24;98.30
60852;BME280;48553;50.766;2.900;2024-03-07T10:25:51;101384.84;;;10.35;98.69
60852;BME280;48553;50.766;2.900;2024-03-07T10:28:53;101382.00;;;10.49;97.56
60852;BME280;48553;50.766;2.900;2024-03-07T10:31:54;101387.97;;;10.59;97.64
60852;BME280;48553;50.766;2.900;2024-03-07T10:34:54;101373.97;;;10.70;96.93
60852;BME280;48553;50.766;2.900;2024-03-07T10:37:56;101377.69;;;10.82;97.24
60852;BME280;48553;50.766;2.900;2024-03-07T10:40:57;101376.53;;;10.92;97.02
60852;BME280;48553;50.766;2.900;2024-03-07T10:44:00;101380.25;;;11.05;97.30
60852;BME280;48553;50.766;2.900;2024-03-07T10:47:01;101377.53;;;11.14;96.67
60852;BME280;48553;50.766;2.900;2024-03-07T10:53:19;101374.09;;;11.34;95.47
60852;BME280;48553;50.766;2.900;2024-03-07T11:00:03;101357.91;;;11.59;95.04
60852;BME280;48553;50.766;2.900;2024-03-07T11:03:24;101358.03;;;11.71;95.33
60852;BME280;48553;50.766;2.900;2024-03-07T11:06:25;101359.28;;;11.82;94.99
60852;BME280;48553;50.766;2.900;2024-03-07T11:09:27;101357.19;;;11.88;94.30
60852;BME280;48553;50.766;2.900;2024-03-07T11:12:33;101346.94;;;12.06;94.22
60852;BME280;48553;50.766;2.900;2024-03-07T11:15:36;101344.78;;;12.11;94.76
60852;BME280;48553;50.766;2.900;2024-03-07T11:18:36;101347.63;;;12.24;94.30
60852;BME280;48553;50.766;2.900;2024-03-07T11:21:43;101331.22;;;12.36;93.79
60852;BME280;48553;50.766;2.900;2024-03-07T11:24:43;101336.16;;;12.51;93.36
60852;BME280;48553;50.766;2.900;2024-03-07T11:27:55;101318.97;;;12.54;93.38
60852;BME280;48553;50.766;2.900;2024-03-07T11:31:15;101323.41;;;12.68;92.66
60852;BME280;48553;50.766;2.900;2024-03-07T11:34:16;101317.84;;;12.77;92.72
60852;BME280;48553;50.766;2.900;2024-03-07T11:37:36;101327.75;;;12.90;92.63
60852;BME280;48553;50.766;2.900;2024-03-07T11:43:43;101310.75;;;13.09;91.93
60852;BME280;48553;50.766;2.900;2024-03-07T11:46:44;101302.03;;;13.19;91.54
60852;BME280;48553;50.766;2.900;2024-03-07T11:49:45;101299.56;;;13.26;91.30
60852;BME280;48553;50.766;2.900;2024-03-07T11:52:48;101290.41;;;13.34;92.20
60852;BME280;48553;50.766;2.900;2024-03-07T11:55:50;101285.84;;;13.39;92.08
60852;BME280;48553;50.766;2.900;2024-03-07T11:58:54;101295.25;;;13.50;92.13
60852;BME280;48553;50.766;2.900;2024-03-07T12:01:57;101292.28;;;13.55;91.20
60852;BME280;48553;50.766;2.900;2024-03-07T12:05:01;101286.34;;;13.65;90.88
60852;BME280;48553;50.766;2.900;2024-03-07T12:08:05;101284.47;;;13.69;90.58
60852;BME280;48553;50.766;2.900;2024-03-07T12:11:06;101266.59;;;13.75;90.48
60852;BME280;48553;50.766;2.900;2024-03-07T12:14:06;101260.75;;;13.77;90.62
60852;BME280;48553;50.766;2.900;2024-03-07T12:17:07;101249.13;;;13.84;90.80
60852;BME280;48553;50.766;2.900;2024-03-07T12:20:08;101254.41;;;13.89;91.49
60852;BME280;48553;50.766;2.900;2024-03-07T12:23:24;101254.41;;;13.89;90.12
60852;BME280;48553;50.766;2.900;2024-03-07T12:26:26;101241.78;;;13.88;90.12
60852;BME280;48553;50.766;2.900;2024-03-07T12:29:28;101235.09;;;14.01;90.94
60852;BME280;48553;50.766;2.900;2024-03-07T12:32:28;101233.03;;;13.98;90.16
60852;BME280;48553;50.766;2.900;2024-03-07T12:35:30;101235.91;;;14.02;90.26
60852;BME280;48553;50.766;2.900;2024-03-07T12:38:31;101232.13;;;14.06;90.54
60852;BME280;48553;50.766;2.900;2024-03-07T12:41:35;101217.53;;;14.06;90.62
60852;BME280;48553;50.766;2.900;2024-03-07T12:44:42;101221.56;;;14.08;89.66
60852;BME280;48553;50.766;2.900;2024-03-07T12:47:51;101206.59;;;14.09;90.69
60852;BME280;48553;50.766;2.900;2024-03-07T12:50:54;101207.84;;;14.12;89.64
60852;BME280;48553;50.766;2.900;2024-03-07T12:53:54;101214.63;;;14.14;89.38
60852;BME280;48553;50.766;2.900;2024-03-07T12:56:55;101205.69;;;14.17;90.47
60852;BME280;48553;50.766;2.900;2024-03-07T12:59:56;101203.13;;;14.12;89.78
60852;BME280;48553;50.766;2.900;2024-03-07T13:02:56;101197.09;;;14.07;90.30
60852;BME280;48553;50.766;2.900;2024-03-07T13:05:58;101189.28;;;14.09;90.88
60852;BME280;48553;50.766;2.900;2024-03-07T13:09:02;101188.22;;;14.13;90.94
60852;BME280;48553;50.766;2.900;2024-03-07T13:12:03;101186.50;;;14.09;89.95
60852;BME280;48553;50.766;2.900;2024-03-07T13:15:04;101188.31;;;14.17;90.96
60852;BME280;48553;50.766;2.900;2024-03-07T13:18:07;101179.97;;;14.01;90.55
60852;BME280;48553;50.766;2.900;2024-03-07T13:21:09;101185.59;;;14.05;90.78
60852;BME280;48553;50.766;2.900;2024-03-07T13:24:10;101170.78;;;14.09;90.61
60852;BME280;48553;50.766;2.900;2024-03-07T13:27:11;101165.97;;;14.06;90.93
60852;BME280;48553;50.766;2.900;2024-03-07T13:30:12;101168.34;;;14.08;90.67
60852;BME280;48553;50.766;2.900;2024-03-07T13:33:22;101153.91;;;14.11;90.15
60852;BME280;48553;50.766;2.900;2024-03-07T13:36:24;101156.41;;;14.16;90.61
60852;BME280;48553;50.766;2.900;2024-03-07T13:39:25;101156.41;;;14.16;90.53
60852;BME280;48553;50.766;2.900;2024-03-07T13:42:25;101145.56;;;14.23;90.06
60852;BME280;48553;50.766;2.900;2024-03-07T13:45:30;101145.56;;;14.23;90.47
60852;BME280;48553;50.766;2.900;2024-03-07T13:48:39;101135.34;;;14.24;90.54
60852;BME280;48553;50.766;2.900;2024-03-07T13:51:43;101133.75;;;14.23;90.28
60852;BME280;48553;50.766;2.900;2024-03-07T13:55:03;101129.59;;;14.29;89.26
60852;BME280;48553;50.766;2.900;2024-03-07T13:58:15;101123.44;;;14.19;89.86
60852;BME280;48553;50.766;2.900;2024-03-07T14:11:33;101106.00;;;14.03;89.99
60852;BME280;48553;50.766;2.900;2024-03-07T14:14:49;101093.09;;;13.91;89.49
60852;BME280;48553;50.766;2.900;2024-03-07T14:28:03;101079.38;;;13.67;89.28
60852;BME280;48553;50.766;2.900;2024-03-07T14:31:07;101076.19;;;13.65;89.42
60852;BME280;48553;50.766;2.900;2024-03-07T14:34:29;101068.75;;;13.65;88.80
60852;BME280;48553;50.766;2.900;2024-03-07T14:37:45;101058.53;;;13.66;88.83
60852;BME280;48553;50.766;2.900;2024-03-07T14:40:46;101063.03;;;13.58;89.26
60852;BME280;48553;50.766;2.900;2024-03-07T14:43:49;101059.38;;;13.54;89.14
60852;BME280;48553;50.766;2.900;2024-03-07T14:46:58;101055.78;;;13.53;88.99
60852;BME280;48553;50.766;2.900;2024-03-07T14:50:00;101041.69;;;13.55;88.61
60852;BME280;48553;50.766;2.900;2024-03-07T14:53:01;101044.94;;;13.45;88.24
60852;BME280;48553;50.766;2.900;2024-03-07T14:56:02;101043.56;;;13.39;89.78
60852;BME280;48553;50.766;2.900;2024-03-07T14:59:02;101036.91;;;13.27;89.74
60852;BME280;48553;50.766;2.900;2024-03-07T15:02:05;101037.72;;;13.28;89.74
60852;BME280;48553;50.766;2.900;2024-03-07T15:05:10;101026.59;;;13.24;89.48
60852;BME280;48553;50.766;2.900;2024-03-07T15:08:11;101026.13;;;13.22;89.51
60852;BME280;48553;50.766;2.900;2024-03-07T15:11:18;101023.00;;;13.24;89.26
60852;BME280;48553;50.766;2.900;2024-03-07T15:14:20;101008.38;;;13.20;89.65
60852;BME280;48553;50.766;2.900;2024-03-07T15:17:21;101009.50;;;13.19;89.58
60852;BME280;48553;50.766;2.900;2024-03-07T15:20:24;101004.69;;;13.15;89.21
60852;BME280;48553;50.766;2.900;2024-03-07T15:23:26;100998.63;;;13.10;89.46
60852;BME280;48553;50.766;2.900;2024-03-07T15:26:27;101001.94;;;13.03;90.23
60852;BME280;48553;50.766;2.900;2024-03-07T15:29:27;101000.03;;;12.91;89.72
60852;BME280;48553;50.766;2.900;2024-03-07T15:32:28;100998.31;;;12.87;89.63
60852;BME280;48553;50.766;2.900;2024-03-07T15:35:28;100995.00;;;12.81;89.71
60852;BME280;48553;50.766;2.900;2024-03-07T15:38:30;100997.53;;;12.74;89.86
60852;BME280;48553;50.766;2.900;2024-03-07T15:41:32;100980.78;;;12.67;89.07
60852;BME280;48553;50.766;2.900;2024-03-07T15:44:33;100984.94;;;12.61;89.85
60852;BME280;48553;50.766;2.900;2024-03-07T15:47:35;100967.03;;;12.54;91.06
60852;BME280;48553;50.766;2.900;2024-03-07T15:50:36;100970.69;;;12.46;90.61
60852;BME280;48553;50.766;2.900;2024-03-07T15:53:38;100978.72;;;12.39;88.83
60852;BME280;48553;50.766;2.900;2024-03-07T15:56:40;100973.31;;;12.30;90.44
60852;BME280;48553;50.766;2.900;2024-03-07T15:59:44;100971.59;;;12.26;90.73
60852;BME280;48553;50.766;2.900;2024-03-07T16:02:44;100967.50;;;12.20;89.28
60852;BME280;48553;50.766;2.900;2024-03-07T16:05:45;100962.56;;;12.13;91.04
60852;BME280;48553;50.766;2.900;2024-03-07T16:08:45;100971.69;;;12.05;90.90
60852;BME280;48553;50.766;2.900;2024-03-07T16:11:45;100965.63;;;11.99;91.77
60852;BME280;48553;50.766;2.900;2024-03-07T16:14:46;100959.84;;;11.92;92.43
60852;BME280;48553;50.766;2.900;2024-03-07T16:17:47;100961.19;;;11.86;90.84
60852;BME280;48553;50.766;2.900;2024-03-07T16:20:47;100960.25;;;11.82;91.06